LJPZ/POW METAR and TAF weather

Enter ICAO airport designator
Station Type Date Time Source
LJPZ METAR 2020/03/31 07:30 UTC NOAA

LJPZ 310730Z 05013KT 010V090 CAVOK 07/M10 Q1022


Station Type Date Time Source
LJPZ Decoded METAR 2020/03/31 07:30 UTC NOAA

Portoroz, Slovenia (LJPZ) 45-31N 013-34E
Mar 31, 2020 - 03:30 AM EDT / 2020.03.31 0730 UTC
Wind: from the NE (050 degrees) at 15 MPH (13 KT) (direction variable):0
Visibility: greater than 7 mile(s):0
Temperature: 44 F (7 C)
Dew Point: 14 F (-10 C)
Relative Humidity: 28%
Pressure (altimeter): 30.18 in. Hg (1022 hPa)
ob: LJPZ 310730Z 05013KT 010V090 CAVOK 07/M10 Q1022
cycle: 7

Station Type Date Time Source
LJPZ TAF 2008/06/02 05:30 UTC NOAA

TAF TAF LJPZ 020530Z 021615 VRB02KT 6000 NSC
BECMG 0911 30005KT 9999 FEW040

Example: see airport list